createdAt,value
2017-12-06T00:00:11.894Z,24.80
2017-12-06T00:02:39.397Z,24.05
2017-12-06T00:05:06.958Z,23.42
2017-12-06T00:07:34.451Z,22.87
2017-12-06T00:10:02.714Z,22.62
2017-12-06T00:12:36.582Z,21.30
2017-12-06T00:15:10.255Z,22.15
2017-12-06T00:17:37.786Z,22.42
2017-12-06T00:20:06.048Z,20.52
2017-12-06T00:22:33.530Z,21.95
2017-12-06T00:25:01.066Z,22.90
2017-12-06T00:27:28.551Z,22.98
2017-12-06T00:29:56.038Z,21.52
2017-12-06T00:32:24.619Z,21.30
2017-12-06T00:34:52.999Z,21.92
2017-12-06T00:37:20.482Z,22.20
2017-12-06T00:39:47.981Z,21.23
2017-12-06T00:42:15.470Z,22.02
2017-12-06T00:44:42.958Z,22.40
2017-12-06T00:47:10.473Z,21.90
2017-12-06T00:49:37.974Z,22.45
2017-12-06T00:52:05.578Z,22.42
2017-12-06T00:54:33.091Z,23.50
2017-12-06T00:57:00.609Z,22.20
2017-12-06T00:59:28.577Z,21.73
2017-12-06T01:01:56.942Z,22.02
2017-12-06T01:04:25.034Z,21.30
2017-12-06T01:06:53.184Z,20.40
2017-12-06T01:09:20.690Z,21.10
2017-12-06T01:11:48.385Z,21.25
2017-12-06T01:14:16.457Z,20.62
2017-12-06T01:16:44.568Z,19.40
2017-12-06T01:19:12.124Z,22.20
2017-12-06T01:21:40.819Z,20.33
2017-12-06T01:24:08.546Z,20.25
2017-12-06T01:26:36.804Z,19.83
2017-12-06T01:29:04.295Z,21.75
2017-12-06T01:31:32.563Z,18.60
2017-12-06T01:34:00.867Z,19.92
2017-12-06T01:36:29.563Z,18.58
2017-12-06T01:38:57.534Z,18.90
2017-12-06T01:41:25.086Z,21.20
2017-12-06T01:43:52.808Z,19.12
2017-12-06T01:46:20.337Z,18.85
2017-12-06T01:48:48.931Z,17.98
2017-12-06T01:51:16.422Z,20.73
2017-12-06T01:53:44.981Z,20.02
2017-12-06T01:56:13.006Z,18.60
2017-12-06T01:58:40.886Z,17.60
2017-12-06T02:01:09.150Z,19.02
2017-12-06T02:03:37.206Z,16.85
2017-12-06T02:06:05.511Z,17.17
2017-12-06T02:08:33.336Z,16.33
2017-12-06T02:11:01.599Z,16.00
2017-12-06T02:13:29.862Z,18.52
2017-12-06T02:15:57.587Z,17.60
2017-12-06T02:18:25.655Z,16.85
2017-12-06T02:20:53.196Z,17.60
2017-12-06T02:23:21.606Z,17.00
2017-12-06T02:25:49.556Z,15.43
2017-12-06T02:28:17.060Z,19.50
2017-12-06T02:30:44.575Z,17.92
2017-12-06T02:33:12.116Z,19.37
2017-12-06T02:35:39.674Z,18.20
2017-12-06T02:38:07.174Z,18.40
2017-12-06T02:40:46.504Z,17.65
2017-12-06T02:43:25.866Z,18.02
2017-12-06T02:45:53.351Z,16.30
2017-12-06T02:48:21.605Z,16.27
2017-12-06T02:50:49.898Z,16.40
2017-12-06T02:53:17.790Z,15.43
2017-12-06T02:55:46.961Z,15.48
2017-12-06T02:58:14.522Z,15.55
2017-12-06T03:00:42.035Z,14.60
2017-12-06T03:03:10.491Z,15.60
2017-12-06T03:05:38.082Z,17.12
2017-12-06T03:08:05.583Z,15.90
2017-12-06T03:10:33.082Z,15.70
2017-12-06T03:13:01.227Z,16.33
2017-12-06T03:15:29.738Z,18.30
2017-12-06T03:17:57.227Z,15.95
2017-12-06T03:20:24.739Z,15.57
2017-12-06T03:22:52.230Z,16.08
2017-12-06T03:25:19.746Z,15.73
2017-12-06T03:27:48.325Z,15.85
2017-12-06T03:30:15.885Z,16.60
2017-12-06T03:32:43.393Z,17.62
2017-12-06T03:35:10.892Z,16.10
2017-12-06T03:37:38.387Z,16.12
2017-12-06T03:40:05.887Z,17.70
2017-12-06T03:42:33.946Z,17.52
2017-12-06T03:45:01.790Z,17.60
2017-12-06T03:47:29.312Z,17.85
2017-12-06T03:49:57.587Z,19.20
2017-12-06T03:52:25.078Z,20.08
2017-12-06T03:54:53.021Z,18.45
2017-12-06T03:57:20.613Z,19.37
2017-12-06T03:59:48.142Z,19.50
2017-12-06T04:02:16.553Z,20.12
2017-12-06T04:04:44.090Z,19.50
2017-12-06T04:07:11.590Z,19.98
2017-12-06T04:09:39.094Z,19.77
2017-12-06T04:12:07.364Z,20.48
2017-12-06T04:14:34.860Z,19.90
2017-12-06T04:17:03.159Z,22.08
2017-12-06T04:19:30.702Z,21.67
2017-12-06T04:21:59.388Z,20.75
2017-12-06T04:24:27.319Z,20.35
2017-12-06T04:26:55.099Z,20.65
2017-12-06T04:29:22.862Z,20.35
2017-12-06T04:31:51.121Z,19.02
2017-12-06T04:34:18.638Z,21.15
2017-12-06T04:36:46.198Z,19.70
2017-12-06T04:39:13.682Z,21.42
2017-12-06T04:41:41.326Z,21.67
2017-12-06T04:44:09.737Z,23.05
2017-12-06T04:46:37.297Z,21.17
2017-12-06T04:49:04.802Z,20.12
2017-12-06T04:51:32.775Z,20.02
2017-12-06T04:54:00.263Z,21.48
2017-12-06T04:56:27.787Z,21.87
2017-12-06T04:58:55.314Z,22.27
2017-12-06T05:01:23.580Z,22.52
2017-12-06T05:03:52.450Z,21.33
2017-12-06T05:06:20.033Z,21.67
2017-12-06T05:08:47.522Z,23.85
2017-12-06T05:11:16.155Z,21.80
2017-12-06T05:13:43.944Z,21.55
2017-12-06T05:16:12.221Z,22.30
2017-12-06T05:18:40.498Z,20.85
2017-12-06T05:21:08.028Z,21.85
2017-12-06T05:23:36.591Z,20.98
2017-12-06T05:26:04.099Z,22.27
2017-12-06T05:28:31.597Z,20.73
2017-12-06T05:30:59.156Z,21.33
2017-12-06T05:33:26.905Z,21.87
2017-12-06T05:35:54.450Z,22.00
2017-12-06T05:38:22.727Z,22.27
2017-12-06T05:40:51.795Z,21.33
2017-12-06T05:43:19.354Z,21.30
2017-12-06T05:45:46.881Z,23.73
2017-12-06T05:48:14.394Z,22.52
2017-12-06T05:50:41.909Z,24.08
2017-12-06T05:53:09.840Z,25.30
2017-12-06T05:55:39.099Z,23.58
2017-12-06T05:58:07.186Z,23.15
2017-12-06T06:00:34.763Z,26.23
2017-12-06T06:03:03.038Z,24.12
2017-12-06T06:05:31.315Z,25.27
2017-12-06T06:07:59.790Z,25.23
2017-12-06T06:10:28.139Z,24.95
2017-12-06T06:12:55.694Z,26.20
2017-12-06T06:15:23.249Z,24.58
2017-12-06T06:17:50.793Z,25.70
2017-12-06T06:20:19.262Z,25.30
2017-12-06T06:22:46.762Z,25.52
2017-12-06T06:25:14.825Z,27.50
2017-12-06T06:27:43.180Z,27.48
2017-12-06T06:30:10.723Z,27.87
2017-12-06T06:32:38.214Z,25.33
2017-12-06T06:35:08.649Z,26.40
2017-12-06T06:37:37.581Z,25.88
2017-12-06T06:40:06.989Z,26.00
2017-12-06T06:42:35.732Z,27.90
2017-12-06T06:45:05.448Z,27.55
2017-12-06T06:47:34.271Z,29.60
2017-12-06T06:50:02.922Z,27.50
2017-12-06T06:52:30.505Z,24.67
2017-12-06T06:54:58.600Z,27.50
2017-12-06T06:57:27.339Z,27.50
2017-12-06T06:59:55.673Z,27.50
2017-12-06T07:02:25.212Z,28.52
2017-12-06T07:04:53.870Z,27.58
2017-12-06T07:07:21.590Z,25.85
2017-12-06T07:09:49.280Z,25.52
2017-12-06T07:12:17.636Z,28.73
2017-12-06T07:14:45.178Z,26.05
2017-12-06T07:17:12.731Z,27.27
2017-12-06T07:19:46.577Z,27.95
2017-12-06T07:22:14.995Z,26.42
2017-12-06T07:24:42.666Z,27.85
2017-12-06T07:27:10.534Z,30.25
2017-12-06T07:29:38.487Z,28.65
2017-12-06T07:32:05.987Z,26.60
2017-12-06T07:34:33.484Z,29.58
2017-12-06T07:37:00.998Z,28.52
2017-12-06T07:39:28.510Z,27.80
2017-12-06T07:41:56.002Z,28.73
2017-12-06T07:44:26.423Z,28.58
2017-12-06T07:46:53.942Z,27.65
2017-12-06T07:49:22.212Z,26.35
2017-12-06T07:51:50.494Z,27.08
2017-12-06T07:54:18.764Z,28.80
2017-12-06T07:56:46.253Z,28.52
2017-12-06T07:59:13.782Z,29.15
2017-12-06T08:01:42.211Z,26.08
2017-12-06T08:04:09.772Z,26.48
2017-12-06T08:06:38.098Z,25.60
2017-12-06T08:09:06.380Z,26.83
2017-12-06T08:11:34.655Z,27.83
2017-12-06T08:14:02.930Z,26.45
2017-12-06T08:16:31.611Z,26.85
2017-12-06T08:18:59.178Z,27.45
2017-12-06T08:21:27.461Z,25.98
2017-12-06T08:23:56.595Z,24.40
2017-12-06T08:26:24.115Z,25.33
2017-12-06T08:28:52.366Z,25.85
2017-12-06T08:31:19.853Z,23.98
2017-12-06T08:33:47.403Z,25.08
2017-12-06T08:36:15.428Z,26.15
2017-12-06T08:38:43.280Z,24.87
2017-12-06T08:41:10.862Z,25.42
2017-12-06T08:43:38.708Z,25.05
2017-12-06T08:46:06.242Z,25.20
2017-12-06T08:48:34.611Z,24.12
2017-12-06T08:51:04.295Z,26.85
2017-12-06T08:53:32.527Z,23.55
2017-12-06T08:56:00.903Z,24.75
2017-12-06T08:58:28.405Z,24.58
2017-12-06T09:00:56.270Z,24.27
2017-12-06T09:03:23.795Z,24.27
2017-12-06T09:05:51.286Z,22.75
2017-12-06T09:08:19.658Z,23.87
2017-12-06T09:10:48.820Z,23.23
2017-12-06T09:15:53.313Z,21.85
2017-12-06T09:18:22.071Z,25.92
2017-12-06T09:20:50.215Z,21.95
2017-12-06T09:23:19.435Z,23.27
2017-12-06T09:25:47.200Z,26.23
2017-12-06T09:28:14.787Z,23.00
2017-12-06T09:30:42.310Z,25.23
2017-12-06T09:33:10.301Z,25.20
2017-12-06T09:35:37.807Z,25.37
2017-12-06T09:38:06.019Z,22.58
2017-12-06T09:40:34.375Z,22.17
2017-12-06T09:43:02.154Z,21.58
2017-12-06T09:45:31.769Z,24.92
2017-12-06T09:47:59.663Z,21.45
2017-12-06T09:50:28.004Z,25.05
2017-12-06T09:52:55.562Z,24.20
2017-12-06T09:55:24.432Z,24.35
2017-12-06T09:57:52.603Z,23.08
2017-12-06T10:00:21.017Z,22.90
2017-12-06T10:02:48.760Z,22.73
2017-12-06T10:05:16.730Z,24.58
2017-12-06T10:07:44.551Z,24.50
2017-12-06T10:10:12.057Z,21.17
2017-12-06T10:12:40.685Z,21.70
2017-12-06T10:15:08.281Z,23.55
2017-12-06T10:17:36.563Z,25.23
2017-12-06T10:20:04.081Z,21.37
2017-12-06T10:22:31.622Z,24.42
2017-12-06T10:24:59.105Z,25.67
2017-12-06T10:27:26.624Z,23.60
2017-12-06T10:29:55.167Z,23.73
2017-12-06T10:32:23.232Z,23.17
2017-12-06T10:34:51.235Z,23.77
2017-12-06T10:37:19.782Z,23.10
2017-12-06T10:39:47.293Z,22.73
2017-12-06T10:42:14.790Z,23.10
2017-12-06T10:44:42.324Z,23.70
2017-12-06T10:47:09.823Z,23.10
2017-12-06T10:49:37.548Z,23.02
2017-12-06T10:52:05.086Z,22.52
2017-12-06T10:54:33.198Z,24.77
2017-12-06T10:57:02.106Z,24.75
2017-12-06T10:59:29.622Z,24.00
2017-12-06T11:01:59.122Z,22.83
2017-12-06T11:04:26.662Z,22.35
2017-12-06T11:06:55.404Z,23.38
2017-12-06T11:09:24.347Z,24.00
2017-12-06T11:11:51.854Z,22.10
2017-12-06T11:14:23.388Z,22.75
2017-12-06T11:16:51.067Z,21.98
2017-12-06T11:19:18.920Z,23.60
2017-12-06T11:21:47.762Z,21.87
2017-12-06T11:24:16.925Z,23.70
2017-12-06T11:26:44.435Z,24.15
2017-12-06T11:29:12.127Z,23.45
2017-12-06T11:31:40.263Z,24.02
2017-12-06T11:34:07.779Z,24.50
2017-12-06T11:36:35.858Z,22.00
2017-12-06T11:39:04.643Z,22.55
2017-12-06T11:41:32.147Z,23.52
2017-12-06T11:44:00.826Z,22.37
2017-12-06T11:46:28.339Z,24.95
2017-12-06T11:48:56.431Z,22.73
2017-12-06T11:51:23.970Z,21.60
2017-12-06T11:53:51.499Z,23.58
2017-12-06T11:56:19.885Z,22.65
2017-12-06T11:58:47.426Z,23.73
2017-12-06T12:01:14.935Z,22.80
2017-12-06T12:03:43.391Z,25.05
2017-12-06T12:06:11.319Z,23.50
2017-12-06T12:08:39.429Z,24.02
2017-12-06T12:11:06.936Z,22.20
2017-12-06T12:13:39.899Z,24.20
2017-12-06T12:16:07.978Z,25.15
2017-12-06T12:18:36.030Z,24.90
2017-12-06T12:21:03.541Z,25.00
2017-12-06T12:23:33.230Z,23.15
2017-12-06T12:26:04.917Z,23.20
2017-12-06T12:28:32.726Z,22.58
2017-12-06T12:31:04.619Z,24.85
2017-12-06T12:33:35.365Z,24.02
2017-12-06T12:36:06.042Z,23.38
2017-12-06T12:38:34.190Z,22.90
2017-12-06T12:41:02.635Z,23.05
2017-12-06T12:43:30.170Z,22.52
2017-12-06T12:46:00.623Z,22.25
2017-12-06T12:48:28.418Z,21.58
2017-12-06T12:50:57.245Z,21.75
2017-12-06T12:53:27.794Z,24.15
2017-12-06T12:55:58.810Z,23.12
2017-12-06T12:58:27.225Z,22.23
2017-12-06T13:00:55.053Z,21.25
2017-12-06T13:03:26.514Z,21.83
2017-12-06T13:05:54.800Z,21.85
2017-12-06T13:08:30.431Z,22.40
2017-12-06T13:13:35.824Z,22.50
2017-12-06T13:16:05.866Z,21.20
2017-12-06T13:18:33.722Z,22.42
2017-12-06T13:21:07.818Z,21.65
2017-12-06T13:23:37.766Z,22.10
2017-12-06T13:26:06.850Z,20.95
2017-12-06T13:28:35.009Z,23.30
2017-12-06T13:31:04.114Z,22.60
2017-12-06T13:33:36.677Z,21.90
2017-12-06T13:36:07.830Z,20.73
2017-12-06T13:41:15.916Z,21.58
2017-12-06T13:43:48.212Z,21.62
2017-12-06T13:46:19.657Z,22.23
2017-12-06T13:48:49.555Z,21.17
2017-12-06T13:51:17.042Z,22.17
2017-12-06T13:53:49.563Z,21.90
2017-12-06T13:56:20.748Z,20.00
2017-12-06T13:58:55.482Z,21.62
2017-12-06T14:01:30.212Z,19.00
2017-12-06T14:04:00.653Z,21.70
2017-12-06T14:06:28.919Z,19.98
2017-12-06T14:08:59.767Z,19.75
2017-12-06T14:11:29.411Z,20.05
2017-12-06T14:14:06.199Z,20.35
2017-12-06T14:16:36.054Z,21.48
2017-12-06T14:19:08.551Z,18.98
2017-12-06T14:21:42.051Z,19.60
2017-12-06T14:24:23.428Z,20.92
2017-12-06T14:27:09.198Z,19.12
2017-12-06T14:29:43.205Z,19.80
2017-12-06T14:32:18.623Z,20.85
2017-12-06T14:34:54.096Z,19.27
2017-12-06T14:37:24.938Z,19.90
2017-12-06T14:40:00.354Z,19.90
2017-12-06T14:42:38.197Z,19.70
2017-12-06T14:45:11.082Z,19.67
2017-12-06T14:47:44.770Z,18.42
2017-12-06T14:50:24.418Z,19.05
2017-12-06T14:52:56.975Z,18.92
2017-12-06T14:55:33.410Z,17.50
2017-12-06T14:58:04.393Z,16.42
2017-12-06T15:00:36.889Z,18.12
2017-12-06T15:03:10.469Z,17.33
2017-12-06T15:05:41.834Z,18.80
2017-12-06T15:08:15.469Z,18.00
2017-12-06T15:13:27.842Z,17.80
2017-12-06T15:16:04.684Z,18.20
2017-12-06T15:18:38.524Z,17.00
2017-12-06T15:21:12.322Z,15.40
2017-12-06T15:23:54.159Z,16.67
2017-12-06T15:26:27.721Z,17.02
2017-12-06T15:29:09.442Z,15.75
2017-12-06T15:34:43.934Z,16.20
2017-12-06T15:37:15.386Z,14.85
2017-12-06T15:45:26.476Z,14.98
2017-12-06T15:47:59.795Z,15.32
2017-12-06T15:53:11.519Z,14.87
2017-12-06T15:55:39.823Z,15.02
2017-12-06T15:58:18.929Z,14.93
2017-12-06T16:03:34.158Z,15.98
2017-12-06T16:06:05.606Z,16.00
2017-12-06T16:08:36.433Z,14.80
2017-12-06T16:11:06.301Z,17.12
2017-12-06T16:13:37.523Z,18.30
2017-12-06T16:16:07.135Z,16.80
2017-12-06T16:18:39.784Z,17.90
2017-12-06T16:21:18.577Z,17.00
2017-12-06T16:24:11.533Z,15.50
2017-12-06T16:27:06.321Z,15.70
2017-12-06T16:29:54.562Z,17.42
2017-12-06T16:32:34.344Z,17.37
2017-12-06T16:35:26.386Z,17.42
2017-12-06T16:38:01.951Z,14.98
2017-12-06T16:40:34.393Z,17.75
2017-12-06T16:48:27.351Z,17.33
2017-12-06T16:51:02.443Z,20.23
2017-12-06T16:53:36.702Z,15.95
2017-12-06T16:56:08.034Z,17.15
2017-12-06T16:58:46.907Z,17.48
2017-12-06T17:01:17.431Z,17.02
2017-12-06T17:03:54.864Z,18.37
2017-12-06T17:09:04.193Z,17.05
2017-12-06T17:22:16.946Z,17.10
2017-12-06T17:24:55.465Z,17.83
2017-12-06T17:27:25.066Z,16.70
2017-12-06T17:30:05.976Z,18.35
2017-12-06T17:32:38.600Z,18.73
2017-12-06T17:35:11.222Z,16.75
2017-12-06T17:37:44.112Z,16.90
2017-12-06T17:40:20.406Z,17.40
2017-12-06T17:42:53.527Z,18.25
2017-12-06T17:45:28.119Z,16.87
2017-12-06T17:48:07.135Z,16.80
2017-12-06T17:50:52.635Z,16.85
2017-12-06T17:53:25.391Z,15.55
2017-12-06T17:55:58.790Z,17.67
2017-12-06T17:58:39.030Z,16.83
2017-12-06T18:01:11.946Z,17.23
2017-12-06T18:03:51.967Z,15.15
2017-12-06T18:06:33.126Z,17.15
2017-12-06T18:09:14.640Z,15.75
2017-12-06T18:11:59.823Z,15.05
2017-12-06T18:14:35.086Z,13.62
2017-12-06T18:17:24.152Z,13.80
2017-12-06T18:20:15.047Z,13.48
2017-12-06T18:22:55.334Z,13.10
2017-12-06T18:30:54.226Z,13.98
2017-12-06T18:33:29.154Z,12.40
2017-12-06T18:36:01.527Z,12.57
2017-12-06T18:38:30.642Z,13.25
2017-12-06T18:43:56.779Z,13.02
2017-12-06T18:46:27.202Z,11.95
2017-12-06T18:49:00.716Z,12.55
2017-12-06T18:51:32.817Z,11.80
2017-12-06T18:54:03.602Z,11.43
2017-12-06T18:56:36.076Z,13.23
2017-12-06T19:01:39.785Z,13.88
2017-12-06T19:04:26.399Z,13.45
2017-12-06T19:07:01.666Z,12.90
2017-12-06T19:12:14.257Z,13.95
2017-12-06T19:14:45.514Z,13.73
2017-12-06T19:17:24.563Z,12.75
2017-12-06T19:20:22.983Z,13.07
2017-12-06T19:25:41.341Z,12.63
2017-12-06T19:28:17.038Z,14.35
2017-12-06T19:30:55.862Z,13.55
2017-12-06T19:33:48.516Z,12.52
2017-12-06T19:36:19.570Z,11.77
2017-12-06T19:38:49.682Z,10.80
2017-12-06T19:41:23.828Z,12.90
2017-12-06T19:44:00.219Z,13.27
2017-12-06T19:46:28.840Z,14.10
2017-12-06T19:49:01.596Z,13.55
2017-12-06T19:51:33.889Z,13.98
2017-12-06T19:54:05.274Z,14.48
2017-12-06T19:56:42.464Z,13.80
2017-12-06T19:59:12.839Z,13.48
2017-12-06T20:01:43.692Z,14.98
2017-12-06T20:04:14.175Z,13.20
2017-12-06T20:06:46.898Z,11.93
2017-12-06T20:09:16.963Z,11.90
2017-12-06T20:11:51.018Z,12.60
2017-12-06T20:14:21.771Z,12.95
2017-12-06T20:16:58.653Z,12.93
2017-12-06T20:19:29.743Z,14.10
2017-12-06T20:22:00.478Z,11.98
2017-12-06T20:27:12.248Z,12.85
2017-12-06T20:29:46.936Z,12.93
2017-12-06T20:32:15.320Z,10.45
2017-12-06T20:34:42.913Z,11.98
2017-12-06T20:39:45.422Z,11.70
2017-12-06T20:42:13.402Z,11.00
2017-12-06T20:44:41.808Z,10.82
2017-12-06T20:47:16.290Z,14.05
2017-12-06T20:49:43.986Z,12.55
2017-12-06T20:52:12.229Z,12.27
2017-12-06T20:54:43.991Z,12.50
2017-12-06T20:57:12.336Z,13.38
2017-12-06T20:59:41.911Z,12.85
2017-12-06T21:02:09.878Z,14.27
2017-12-06T21:04:44.576Z,14.52
2017-12-06T21:07:13.260Z,13.43
2017-12-06T21:09:48.586Z,12.40
2017-12-06T21:12:28.017Z,11.80
2017-12-06T21:15:19.559Z,14.40
2017-12-06T21:17:49.677Z,13.60
2017-12-06T21:20:28.566Z,13.85
2017-12-06T21:23:00.174Z,13.70
2017-12-06T21:25:40.082Z,13.82
2017-12-06T21:28:10.366Z,10.52
2017-12-06T21:30:37.854Z,11.30
2017-12-06T21:33:07.533Z,11.35
2017-12-06T21:35:49.002Z,12.02
2017-12-06T21:38:19.718Z,12.35
2017-12-06T21:40:49.161Z,11.80
2017-12-06T21:43:17.963Z,10.43
2017-12-06T21:45:48.325Z,11.43
2017-12-06T21:48:26.320Z,11.35
2017-12-06T21:51:02.476Z,11.10
2017-12-06T21:53:32.027Z,12.00
2017-12-06T21:56:07.260Z,10.43
2017-12-06T22:02:03.154Z,11.68
2017-12-06T22:04:36.980Z,11.48
2017-12-06T22:07:13.820Z,10.95
2017-12-06T22:09:44.378Z,9.90
2017-12-06T22:12:14.784Z,11.12
2017-12-06T22:15:01.867Z,9.88
2017-12-06T22:17:47.902Z,9.18
2017-12-06T22:22:51.527Z,11.20
2017-12-06T22:25:20.827Z,11.23
2017-12-06T22:27:48.892Z,11.48
2017-12-06T22:30:18.833Z,11.38
2017-12-06T22:32:47.228Z,11.32
2017-12-06T22:35:15.762Z,12.23
2017-12-06T22:37:43.824Z,13.25
2017-12-06T22:40:13.762Z,13.35
2017-12-06T22:42:41.606Z,12.02
2017-12-06T22:45:21.216Z,11.60
2017-12-06T22:47:52.363Z,12.63
2017-12-06T22:50:20.125Z,13.52
2017-12-06T22:52:50.028Z,13.23
2017-12-06T22:55:19.418Z,12.98
2017-12-06T22:57:50.493Z,11.27
2017-12-06T23:00:20.735Z,10.88
2017-12-06T23:02:53.494Z,11.27
2017-12-06T23:05:26.501Z,11.98
2017-12-06T23:08:00.571Z,10.38
2017-12-06T23:10:39.434Z,10.75
2017-12-06T23:13:19.177Z,9.20
2017-12-06T23:15:51.888Z,10.60
2017-12-06T23:18:24.327Z,10.10
2017-12-06T23:20:55.879Z,9.57
2017-12-06T23:23:25.598Z,8.65
2017-12-06T23:25:58.482Z,10.55
2017-12-06T23:28:26.447Z,9.45
2017-12-06T23:30:58.204Z,8.25
2017-12-06T23:33:28.901Z,8.82
2017-12-06T23:35:58.709Z,7.70
2017-12-06T23:38:30.898Z,8.40
2017-12-06T23:41:01.350Z,8.48
2017-12-06T23:43:33.017Z,8.35
2017-12-06T23:46:05.571Z,7.30
2017-12-06T23:48:33.563Z,5.50
2017-12-06T23:51:04.168Z,7.05
2017-12-06T23:53:33.497Z,5.95
2017-12-06T23:56:06.147Z,5.82
2017-12-06T23:58:34.964Z,5.60
